sensor_id;sensor_type;location;lat;lon;timestamp;temperature;humidity
70271;SHT31;57680;54.292;18.598;2023-11-18T00:00:26;1.69;95.87
70271;SHT31;57680;54.292;18.598;2023-11-18T00:02:51;1.68;95.70
70271;SHT31;57680;54.292;18.598;2023-11-18T00:05:16;1.71;96.04
70271;SHT31;57680;54.292;18.598;2023-11-18T00:07:42;1.71;95.87
70271;SHT31;57680;54.292;18.598;2023-11-18T00:10:07;1.72;95.86
70271;SHT31;57680;54.292;18.598;2023-11-18T00:12:33;1.76;96.07
70271;SHT31;57680;54.292;18.598;2023-11-18T00:14:58;1.78;95.95
70271;SHT31;57680;54.292;18.598;2023-11-18T00:17:23;1.76;95.69
70271;SHT31;57680;54.292;18.598;2023-11-18T00:19:49;1.78;95.58
70271;SHT31;57680;54.292;18.598;2023-11-18T00:22:14;1.79;95.56
70271;SHT31;57680;54.292;18.598;2023-11-18T00:24:39;1.79;95.52
70271;SHT31;57680;54.292;18.598;2023-11-18T00:27:04;1.81;95.48
70271;SHT31;57680;54.292;18.598;2023-11-18T00:29:30;1.83;95.61
70271;SHT31;57680;54.292;18.598;2023-11-18T00:31:55;1.85;95.62
70271;SHT31;57680;54.292;18.598;2023-11-18T00:34:20;1.83;95.59
70271;SHT31;57680;54.292;18.598;2023-11-18T00:36:46;1.85;95.66
70271;SHT31;57680;54.292;18.598;2023-11-18T00:39:11;1.85;95.37
70271;SHT31;57680;54.292;18.598;2023-11-18T00:41:36;1.81;94.77
70271;SHT31;57680;54.292;18.598;2023-11-18T00:44:02;1.79;94.40
70271;SHT31;57680;54.292;18.598;2023-11-18T00:46:27;1.82;95.10
70271;SHT31;57680;54.292;18.598;2023-11-18T00:48:52;1.85;95.07
70271;SHT31;57680;54.292;18.598;2023-11-18T00:51:18;1.86;94.99
70271;SHT31;57680;54.292;18.598;2023-11-18T00:53:43;1.86;95.00
70271;SHT31;57680;54.292;18.598;2023-11-18T00:56:13;1.92;94.68
70271;SHT31;57680;54.292;18.598;2023-11-18T00:58:40;1.92;94.95
70271;SHT31;57680;54.292;18.598;2023-11-18T01:01:05;1.92;95.21
70271;SHT31;57680;54.292;18.598;2023-11-18T01:03:30;1.92;95.13
70271;SHT31;57680;54.292;18.598;2023-11-18T01:05:56;1.95;95.39
70271;SHT31;57680;54.292;18.598;2023-11-18T01:08:21;1.92;95.21
70271;SHT31;57680;54.292;18.598;2023-11-18T01:10:46;1.90;95.68
70271;SHT31;57680;54.292;18.598;2023-11-18T01:13:12;1.98;96.23
70271;SHT31;57680;54.292;18.598;2023-11-18T01:15:37;1.99;96.16
70271;SHT31;57680;54.292;18.598;2023-11-18T01:18:02;1.96;96.07
70271;SHT31;57680;54.292;18.598;2023-11-18T01:20:28;1.99;95.87
70271;SHT31;57680;54.292;18.598;2023-11-18T01:22:53;1.98;96.04
70271;SHT31;57680;54.292;18.598;2023-11-18T01:25:18;2.00;96.20
70271;SHT31;57680;54.292;18.598;2023-11-18T01:27:43;2.00;96.34
70271;SHT31;57680;54.292;18.598;2023-11-18T01:30:09;1.98;96.32
70271;SHT31;57680;54.292;18.598;2023-11-18T01:32:34;1.98;96.17
70271;SHT31;57680;54.292;18.598;2023-11-18T01:35:00;1.93;95.62
70271;SHT31;57680;54.292;18.598;2023-11-18T01:37:25;1.92;95.81
70271;SHT31;57680;54.292;18.598;2023-11-18T01:39:50;1.93;96.65
70271;SHT31;57680;54.292;18.598;2023-11-18T01:42:15;1.92;96.00
70271;SHT31;57680;54.292;18.598;2023-11-18T01:44:41;1.86;95.99
70271;SHT31;57680;54.292;18.598;2023-11-18T01:47:07;1.83;95.87
70271;SHT31;57680;54.292;18.598;2023-11-18T01:49:35;1.85;96.11
70271;SHT31;57680;54.292;18.598;2023-11-18T01:52:02;1.79;95.99
70271;SHT31;57680;54.292;18.598;2023-11-18T01:54:27;1.82;96.18
70271;SHT31;57680;54.292;18.598;2023-11-18T01:56:53;1.81;96.05
70271;SHT31;57680;54.292;18.598;2023-11-18T01:59:18;1.79;96.16
70271;SHT31;57680;54.292;18.598;2023-11-18T02:01:52;1.76;96.69
70271;SHT31;57680;54.292;18.598;2023-11-18T02:04:17;1.75;96.60
70271;SHT31;57680;54.292;18.598;2023-11-18T02:06:43;1.76;96.65
70271;SHT31;57680;54.292;18.598;2023-11-18T02:09:08;1.72;96.75
70271;SHT31;57680;54.292;18.598;2023-11-18T02:11:49;1.69;96.38
70271;SHT31;57680;54.292;18.598;2023-11-18T02:14:18;1.66;96.42
70271;SHT31;57680;54.292;18.598;2023-11-18T02:16:48;1.66;96.67
70271;SHT31;57680;54.292;18.598;2023-11-18T02:19:19;1.65;96.68
70271;SHT31;57680;54.292;18.598;2023-11-18T02:21:45;1.63;96.94
70271;SHT31;57680;54.292;18.598;2023-11-18T02:24:27;1.66;96.69
70271;SHT31;57680;54.292;18.598;2023-11-18T02:26:55;1.58;96.65
70271;SHT31;57680;54.292;18.598;2023-11-18T02:29:21;1.63;96.98
70271;SHT31;57680;54.292;18.598;2023-11-18T02:31:50;1.58;96.96
70271;SHT31;57680;54.292;18.598;2023-11-18T02:34:22;1.52;96.56
70271;SHT31;57680;54.292;18.598;2023-11-18T02:36:50;1.42;96.31
70271;SHT31;57680;54.292;18.598;2023-11-18T02:39:42;1.42;96.51
70271;SHT31;57680;54.292;18.598;2023-11-18T02:42:09;1.37;96.71
70271;SHT31;57680;54.292;18.598;2023-11-18T02:44:36;1.41;96.58
70271;SHT31;57680;54.292;18.598;2023-11-18T02:47:02;1.37;96.28
70271;SHT31;57680;54.292;18.598;2023-11-18T02:49:29;1.34;96.34
70271;SHT31;57680;54.292;18.598;2023-11-18T02:51:54;1.32;96.13
70271;SHT31;57680;54.292;18.598;2023-11-18T02:54:20;1.31;96.18
70271;SHT31;57680;54.292;18.598;2023-11-18T02:56:45;1.28;96.08
70271;SHT31;57680;54.292;18.598;2023-11-18T02:59:10;1.31;96.08
70271;SHT31;57680;54.292;18.598;2023-11-18T03:01:36;1.32;96.10
70271;SHT31;57680;54.292;18.598;2023-11-18T03:04:01;1.32;96.17
70271;SHT31;57680;54.292;18.598;2023-11-18T03:06:26;1.32;95.97
70271;SHT31;57680;54.292;18.598;2023-11-18T03:08:52;1.30;95.66
70271;SHT31;57680;54.292;18.598;2023-11-18T03:11:20;1.26;95.83
70271;SHT31;57680;54.292;18.598;2023-11-18T03:13:46;1.26;96.03
70271;SHT31;57680;54.292;18.598;2023-11-18T03:16:11;1.24;96.22
70271;SHT31;57680;54.292;18.598;2023-11-18T03:18:38;1.27;95.99
70271;SHT31;57680;54.292;18.598;2023-11-18T03:21:04;1.30;96.29
70271;SHT31;57680;54.292;18.598;2023-11-18T03:23:29;1.26;95.89
70271;SHT31;57680;54.292;18.598;2023-11-18T03:25:54;1.28;96.24
70271;SHT31;57680;54.292;18.598;2023-11-18T03:28:20;1.44;97.51
70271;SHT31;57680;54.292;18.598;2023-11-18T03:30:45;1.38;96.41
70271;SHT31;57680;54.292;18.598;2023-11-18T03:33:10;1.40;95.99
70271;SHT31;57680;54.292;18.598;2023-11-18T03:35:36;1.38;95.91
70271;SHT31;57680;54.292;18.598;2023-11-18T03:38:01;1.37;95.99
70271;SHT31;57680;54.292;18.598;2023-11-18T03:40:26;1.40;95.94
70271;SHT31;57680;54.292;18.598;2023-11-18T03:42:51;1.38;96.02
70271;SHT31;57680;54.292;18.598;2023-11-18T03:45:17;1.40;96.05
70271;SHT31;57680;54.292;18.598;2023-11-18T03:47:42;1.41;96.11
70271;SHT31;57680;54.292;18.598;2023-11-18T03:50:08;1.40;95.81
70271;SHT31;57680;54.292;18.598;2023-11-18T03:52:33;1.40;95.88
70271;SHT31;57680;54.292;18.598;2023-11-18T03:54:58;1.41;95.83
70271;SHT31;57680;54.292;18.598;2023-11-18T03:57:24;1.40;95.91
70271;SHT31;57680;54.292;18.598;2023-11-18T03:59:49;1.41;95.93
70271;SHT31;57680;54.292;18.598;2023-11-18T04:02:14;1.40;95.93
70271;SHT31;57680;54.292;18.598;2023-11-18T04:04:40;1.40;95.80
70271;SHT31;57680;54.292;18.598;2023-11-18T04:07:05;1.38;95.77
70271;SHT31;57680;54.292;18.598;2023-11-18T04:09:30;1.38;95.64
70271;SHT31;57680;54.292;18.598;2023-11-18T04:11:56;1.38;95.64
70271;SHT31;57680;54.292;18.598;2023-11-18T04:14:21;1.38;95.63
70271;SHT31;57680;54.292;18.598;2023-11-18T04:16:47;1.38;95.51
70271;SHT31;57680;54.292;18.598;2023-11-18T04:19:12;1.38;95.50
70271;SHT31;57680;54.292;18.598;2023-11-18T04:21:38;1.37;95.45
70271;SHT31;57680;54.292;18.598;2023-11-18T04:24:04;1.35;95.38
70271;SHT31;57680;54.292;18.598;2023-11-18T04:26:29;1.35;95.22
70271;SHT31;57680;54.292;18.598;2023-11-18T04:28:54;1.35;95.07
70271;SHT31;57680;54.292;18.598;2023-11-18T04:31:20;1.32;94.92
70271;SHT31;57680;54.292;18.598;2023-11-18T04:33:45;1.30;95.07
70271;SHT31;57680;54.292;18.598;2023-11-18T04:36:10;1.30;95.25
70271;SHT31;57680;54.292;18.598;2023-11-18T04:38:36;1.30;95.45
70271;SHT31;57680;54.292;18.598;2023-11-18T04:41:01;1.34;95.64
70271;SHT31;57680;54.292;18.598;2023-11-18T04:43:26;1.34;95.59
70271;SHT31;57680;54.292;18.598;2023-11-18T04:45:52;1.37;95.72
70271;SHT31;57680;54.292;18.598;2023-11-18T04:48:17;1.34;95.79
70271;SHT31;57680;54.292;18.598;2023-11-18T04:50:43;1.32;95.75
70271;SHT31;57680;54.292;18.598;2023-11-18T04:53:08;1.31;95.67
70271;SHT31;57680;54.292;18.598;2023-11-18T04:55:34;1.31;95.74
70271;SHT31;57680;54.292;18.598;2023-11-18T04:57:59;1.28;95.82
70271;SHT31;57680;54.292;18.598;2023-11-18T05:00:25;1.30;96.29
70271;SHT31;57680;54.292;18.598;2023-11-18T05:02:50;1.31;96.27
70271;SHT31;57680;54.292;18.598;2023-11-18T05:05:16;1.32;96.19
70271;SHT31;57680;54.292;18.598;2023-11-18T05:07:42;1.28;96.20
70271;SHT31;57680;54.292;18.598;2023-11-18T05:10:08;1.20;96.12
70271;SHT31;57680;54.292;18.598;2023-11-18T05:12:34;1.10;96.26
70271;SHT31;57680;54.292;18.598;2023-11-18T05:14:59;1.11;96.56
70271;SHT31;57680;54.292;18.598;2023-11-18T05:17:26;1.11;96.47
70271;SHT31;57680;54.292;18.598;2023-11-18T05:19:52;1.13;96.43
70271;SHT31;57680;54.292;18.598;2023-11-18T05:22:18;1.16;96.47
70271;SHT31;57680;54.292;18.598;2023-11-18T05:24:43;1.17;96.26
70271;SHT31;57680;54.292;18.598;2023-11-18T05:32:10;1.14;96.77
70271;SHT31;57680;54.292;18.598;2023-11-18T05:34:35;1.16;97.11
70271;SHT31;57680;54.292;18.598;2023-11-18T05:39:10;1.24;97.38
70271;SHT31;57680;54.292;18.598;2023-11-18T05:41:35;1.21;97.52
70271;SHT31;57680;54.292;18.598;2023-11-18T05:44:00;1.08;97.03
70271;SHT31;57680;54.292;18.598;2023-11-18T05:46:26;1.00;96.63
70271;SHT31;57680;54.292;18.598;2023-11-18T05:48:52;0.96;96.66
70271;SHT31;57680;54.292;18.598;2023-11-18T05:51:25;0.93;96.62
70271;SHT31;57680;54.292;18.598;2023-11-18T05:53:51;0.94;96.76
70271;SHT31;57680;54.292;18.598;2023-11-18T05:56:16;0.94;96.46
70271;SHT31;57680;54.292;18.598;2023-11-18T05:58:42;0.97;96.11
70271;SHT31;57680;54.292;18.598;2023-11-18T06:01:07;0.97;95.64
70271;SHT31;57680;54.292;18.598;2023-11-18T06:03:33;0.97;95.74
70271;SHT31;57680;54.292;18.598;2023-11-18T06:05:58;0.99;96.04
70271;SHT31;57680;54.292;18.598;2023-11-18T06:08:23;0.99;96.11
70271;SHT31;57680;54.292;18.598;2023-11-18T06:10:49;0.99;95.94
70271;SHT31;57680;54.292;18.598;2023-11-18T06:13:14;0.99;95.75
70271;SHT31;57680;54.292;18.598;2023-11-18T06:15:40;0.97;95.96
70271;SHT31;57680;54.292;18.598;2023-11-18T06:18:05;1.04;97.05
70271;SHT31;57680;54.292;18.598;2023-11-18T06:20:34;1.11;97.63
70271;SHT31;57680;54.292;18.598;2023-11-18T06:22:59;1.17;97.77
70271;SHT31;57680;54.292;18.598;2023-11-18T06:25:25;1.35;99.09
70271;SHT31;57680;54.292;18.598;2023-11-18T06:27:50;1.35;97.57
70271;SHT31;57680;54.292;18.598;2023-11-18T06:30:15;1.32;97.14
70271;SHT31;57680;54.292;18.598;2023-11-18T06:32:41;1.32;96.80
70271;SHT31;57680;54.292;18.598;2023-11-18T06:35:06;1.32;96.43
70271;SHT31;57680;54.292;18.598;2023-11-18T06:37:32;1.37;96.13
70271;SHT31;57680;54.292;18.598;2023-11-18T06:39:58;1.41;96.21
70271;SHT31;57680;54.292;18.598;2023-11-18T06:42:23;1.47;96.19
70271;SHT31;57680;54.292;18.598;2023-11-18T06:44:48;1.47;95.94
70271;SHT31;57680;54.292;18.598;2023-11-18T06:47:14;1.47;95.76
70271;SHT31;57680;54.292;18.598;2023-11-18T06:49:39;1.52;95.60
70271;SHT31;57680;54.292;18.598;2023-11-18T06:52:04;1.56;95.21
70271;SHT31;57680;54.292;18.598;2023-11-18T06:54:30;1.56;95.04
70271;SHT31;57680;54.292;18.598;2023-11-18T06:56:55;1.59;95.64
70271;SHT31;57680;54.292;18.598;2023-11-18T06:59:20;1.65;95.71
70271;SHT31;57680;54.292;18.598;2023-11-18T07:01:46;1.65;95.63
70271;SHT31;57680;54.292;18.598;2023-11-18T07:04:11;1.65;95.86
70271;SHT31;57680;54.292;18.598;2023-11-18T07:06:37;1.66;96.15
70271;SHT31;57680;54.292;18.598;2023-11-18T07:09:02;1.71;96.16
70271;SHT31;57680;54.292;18.598;2023-11-18T07:11:27;1.72;96.08
70271;SHT31;57680;54.292;18.598;2023-11-18T07:13:53;1.72;95.99
70271;SHT31;57680;54.292;18.598;2023-11-18T07:16:18;1.75;96.02
70271;SHT31;57680;54.292;18.598;2023-11-18T07:18:43;1.75;96.01
70271;SHT31;57680;54.292;18.598;2023-11-18T07:21:09;1.79;96.15
70271;SHT31;57680;54.292;18.598;2023-11-18T07:23:35;1.81;96.31
70271;SHT31;57680;54.292;18.598;2023-11-18T07:26:01;1.79;96.48
70271;SHT31;57680;54.292;18.598;2023-11-18T07:28:27;1.78;96.74
70271;SHT31;57680;54.292;18.598;2023-11-18T07:30:53;1.75;96.50
70271;SHT31;57680;54.292;18.598;2023-11-18T07:33:19;1.82;95.99
70271;SHT31;57680;54.292;18.598;2023-11-18T07:35:45;1.79;95.66
70271;SHT31;57680;54.292;18.598;2023-11-18T07:38:11;1.76;95.96
70271;SHT31;57680;54.292;18.598;2023-11-18T07:40:37;1.82;95.99
70271;SHT31;57680;54.292;18.598;2023-11-18T07:43:02;1.83;96.45
70271;SHT31;57680;54.292;18.598;2023-11-18T07:45:27;1.86;96.20
70271;SHT31;57680;54.292;18.598;2023-11-18T07:47:53;1.86;96.10
70271;SHT31;57680;54.292;18.598;2023-11-18T07:50:18;1.89;96.19
70271;SHT31;57680;54.292;18.598;2023-11-18T07:52:44;1.89;96.42
70271;SHT31;57680;54.292;18.598;2023-11-18T07:55:09;1.93;96.40
70271;SHT31;57680;54.292;18.598;2023-11-18T07:57:36;1.95;96.28
70271;SHT31;57680;54.292;18.598;2023-11-18T08:00:02;1.96;96.06
70271;SHT31;57680;54.292;18.598;2023-11-18T08:02:27;1.89;95.62
70271;SHT31;57680;54.292;18.598;2023-11-18T08:04:52;1.89;95.49
70271;SHT31;57680;54.292;18.598;2023-11-18T08:07:18;1.85;95.43
70271;SHT31;57680;54.292;18.598;2023-11-18T08:09:43;1.85;95.63
70271;SHT31;57680;54.292;18.598;2023-11-18T08:12:08;1.86;95.84
70271;SHT31;57680;54.292;18.598;2023-11-18T08:14:33;1.86;95.53
70271;SHT31;57680;54.292;18.598;2023-11-18T08:16:59;1.98;95.97
70271;SHT31;57680;54.292;18.598;2023-11-18T08:19:24;2.07;96.28
70271;SHT31;57680;54.292;18.598;2023-11-18T08:21:49;2.11;95.94
70271;SHT31;57680;54.292;18.598;2023-11-18T08:24:15;2.14;95.39
70271;SHT31;57680;54.292;18.598;2023-11-18T08:26:40;2.17;95.19
70271;SHT31;57680;54.292;18.598;2023-11-18T08:29:05;2.20;95.02
70271;SHT31;57680;54.292;18.598;2023-11-18T08:31:30;2.23;94.60
70271;SHT31;57680;54.292;18.598;2023-11-18T08:33:56;2.24;94.48
70271;SHT31;57680;54.292;18.598;2023-11-18T08:36:21;2.24;94.24
70271;SHT31;57680;54.292;18.598;2023-11-18T08:38:46;2.26;93.96
70271;SHT31;57680;54.292;18.598;2023-11-18T08:41:12;2.31;94.24
70271;SHT31;57680;54.292;18.598;2023-11-18T08:43:37;2.34;93.81
70271;SHT31;57680;54.292;18.598;2023-11-18T08:46:02;2.38;93.85
70271;SHT31;57680;54.292;18.598;2023-11-18T08:48:28;2.41;93.83
70271;SHT31;57680;54.292;18.598;2023-11-18T08:50:53;2.45;93.36
70271;SHT31;57680;54.292;18.598;2023-11-18T08:53:18;2.50;92.95
70271;SHT31;57680;54.292;18.598;2023-11-18T09:02:18;2.61;92.86
70271;SHT31;57680;54.292;18.598;2023-11-18T09:04:43;2.65;93.09
70271;SHT31;57680;54.292;18.598;2023-11-18T09:09:18;2.75;93.24
70271;SHT31;57680;54.292;18.598;2023-11-18T09:11:43;2.85;93.62
70271;SHT31;57680;54.292;18.598;2023-11-18T09:14:09;2.91;93.50
70271;SHT31;57680;54.292;18.598;2023-11-18T09:16:34;2.92;93.42
70271;SHT31;57680;54.292;18.598;2023-11-18T09:18:59;2.91;93.49
70271;SHT31;57680;54.292;18.598;2023-11-18T09:21:25;2.88;93.40
70271;SHT31;57680;54.292;18.598;2023-11-18T09:23:50;2.80;92.80
70271;SHT31;57680;54.292;18.598;2023-11-18T09:26:16;2.68;92.48
70271;SHT31;57680;54.292;18.598;2023-11-18T09:28:41;2.60;92.77
70271;SHT31;57680;54.292;18.598;2023-11-18T09:31:07;2.58;93.58
70271;SHT31;57680;54.292;18.598;2023-11-18T09:33:33;2.61;94.15
70271;SHT31;57680;54.292;18.598;2023-11-18T09:36:06;2.64;94.21
70271;SHT31;57680;54.292;18.598;2023-11-18T09:38:33;2.61;93.93
70271;SHT31;57680;54.292;18.598;2023-11-18T09:41:00;2.64;93.66
70271;SHT31;57680;54.292;18.598;2023-11-18T09:43:25;2.61;93.20
70271;SHT31;57680;54.292;18.598;2023-11-18T09:45:55;2.61;93.11
70271;SHT31;57680;54.292;18.598;2023-11-18T09:48:20;2.64;93.48
70271;SHT31;57680;54.292;18.598;2023-11-18T09:50:48;2.66;93.85
70271;SHT31;57680;54.292;18.598;2023-11-18T09:53:14;2.65;93.68
70271;SHT31;57680;54.292;18.598;2023-11-18T09:55:56;2.68;93.46
70271;SHT31;57680;54.292;18.598;2023-11-18T09:58:23;2.72;93.07
70271;SHT31;57680;54.292;18.598;2023-11-18T10:00:50;2.77;92.63
70271;SHT31;57680;54.292;18.598;2023-11-18T10:03:18;2.80;90.16
70271;SHT31;57680;54.292;18.598;2023-11-18T10:05:44;2.85;89.24
70271;SHT31;57680;54.292;18.598;2023-11-18T10:08:10;2.93;88.54
70271;SHT31;57680;54.292;18.598;2023-11-18T10:10:36;2.98;88.34
70271;SHT31;57680;54.292;18.598;2023-11-18T10:13:02;3.01;88.29
70271;SHT31;57680;54.292;18.598;2023-11-18T10:15:27;3.05;88.23
70271;SHT31;57680;54.292;18.598;2023-11-18T10:17:53;3.12;88.56
70271;SHT31;57680;54.292;18.598;2023-11-18T10:20:18;3.11;89.36
70271;SHT31;57680;54.292;18.598;2023-11-18T10:22:44;3.03;88.61
70271;SHT31;57680;54.292;18.598;2023-11-18T10:25:09;3.03;89.05
70271;SHT31;57680;54.292;18.598;2023-11-18T10:27:34;3.03;88.36
70271;SHT31;57680;54.292;18.598;2023-11-18T10:30:04;3.02;88.35
70271;SHT31;57680;54.292;18.598;2023-11-18T10:32:30;3.05;88.39
70271;SHT31;57680;54.292;18.598;2023-11-18T10:34:59;3.15;89.07
70271;SHT31;57680;54.292;18.598;2023-11-18T10:37:27;3.16;88.30
70271;SHT31;57680;54.292;18.598;2023-11-18T10:39:53;3.16;87.67
70271;SHT31;57680;54.292;18.598;2023-11-18T10:42:18;3.19;87.70
70271;SHT31;57680;54.292;18.598;2023-11-18T10:44:56;3.19;87.50
70271;SHT31;57680;54.292;18.598;2023-11-18T10:47:23;3.23;87.65
70271;SHT31;57680;54.292;18.598;2023-11-18T10:49:50;3.24;87.58
70271;SHT31;57680;54.292;18.598;2023-11-18T10:52:16;3.26;86.51
70271;SHT31;57680;54.292;18.598;2023-11-18T10:54:50;3.24;84.81
70271;SHT31;57680;54.292;18.598;2023-11-18T10:57:16;3.18;84.75
70271;SHT31;57680;54.292;18.598;2023-11-18T11:00:00;3.19;84.16
70271;SHT31;57680;54.292;18.598;2023-11-18T11:02:30;3.19;84.32
70271;SHT31;57680;54.292;18.598;2023-11-18T11:04:55;3.16;84.03
70271;SHT31;57680;54.292;18.598;2023-11-18T11:07:21;3.15;83.79
70271;SHT31;57680;54.292;18.598;2023-11-18T11:09:46;3.16;83.09
70271;SHT31;57680;54.292;18.598;2023-11-18T11:12:12;3.16;83.26
70271;SHT31;57680;54.292;18.598;2023-11-18T11:14:48;3.20;83.98
70271;SHT31;57680;54.292;18.598;2023-11-18T11:17:19;3.18;84.12
70271;SHT31;57680;54.292;18.598;2023-11-18T11:20:04;3.18;84.89
70271;SHT31;57680;54.292;18.598;2023-11-18T11:22:38;3.18;85.34
70271;SHT31;57680;54.292;18.598;2023-11-18T11:25:16;3.20;85.17
70271;SHT31;57680;54.292;18.598;2023-11-18T11:28:14;3.26;85.10
70271;SHT31;57680;54.292;18.598;2023-11-18T11:30:45;3.27;85.54
70271;SHT31;57680;54.292;18.598;2023-11-18T11:33:21;3.26;85.85
70271;SHT31;57680;54.292;18.598;2023-11-18T11:35:54;3.24;86.14
70271;SHT31;57680;54.292;18.598;2023-11-18T11:38:20;3.22;85.26
70271;SHT31;57680;54.292;18.598;2023-11-18T11:40:46;3.19;85.36
70271;SHT31;57680;54.292;18.598;2023-11-18T11:43:12;3.13;85.36
70271;SHT31;57680;54.292;18.598;2023-11-18T11:45:37;3.09;84.91
70271;SHT31;57680;54.292;18.598;2023-11-18T11:48:04;3.08;85.36
70271;SHT31;57680;54.292;18.598;2023-11-18T11:50:34;3.06;85.58
70271;SHT31;57680;54.292;18.598;2023-11-18T11:53:12;3.05;86.03
70271;SHT31;57680;54.292;18.598;2023-11-18T11:55:48;3.03;84.73
70271;SHT31;57680;54.292;18.598;2023-11-18T11:58:31;2.99;84.67
70271;SHT31;57680;54.292;18.598;2023-11-18T12:01:01;2.91;86.35
70271;SHT31;57680;54.292;18.598;2023-11-18T12:03:26;2.82;87.43
70271;SHT31;57680;54.292;18.598;2023-11-18T12:05:55;2.74;88.52
70271;SHT31;57680;54.292;18.598;2023-11-18T12:08:22;2.66;89.36
70271;SHT31;57680;54.292;18.598;2023-11-18T12:10:51;2.65;90.10
70271;SHT31;57680;54.292;18.598;2023-11-18T12:13:17;2.66;90.51
70271;SHT31;57680;54.292;18.598;2023-11-18T12:15:52;2.68;91.01
70271;SHT31;57680;54.292;18.598;2023-11-18T12:18:17;2.66;91.07
70271;SHT31;57680;54.292;18.598;2023-11-18T12:20:44;2.66;90.95
70271;SHT31;57680;54.292;18.598;2023-11-18T12:23:10;2.70;91.39
70271;SHT31;57680;54.292;18.598;2023-11-18T12:25:35;2.70;91.80
70271;SHT31;57680;54.292;18.598;2023-11-18T12:28:07;2.75;92.07
70271;SHT31;57680;54.292;18.598;2023-11-18T12:33:01;2.82;92.49
70271;SHT31;57680;54.292;18.598;2023-11-18T12:35:29;2.88;92.24
70271;SHT31;57680;54.292;18.598;2023-11-18T12:40:52;2.91;92.35
70271;SHT31;57680;54.292;18.598;2023-11-18T12:49:16;2.99;92.74
70271;SHT31;57680;54.292;18.598;2023-11-18T12:51:42;2.96;92.59
70271;SHT31;57680;54.292;18.598;2023-11-18T12:54:08;2.92;92.38
70271;SHT31;57680;54.292;18.598;2023-11-18T12:56:34;2.92;92.64
70271;SHT31;57680;54.292;18.598;2023-11-18T12:58:59;2.93;92.77
70271;SHT31;57680;54.292;18.598;2023-11-18T13:01:25;2.93;92.71
70271;SHT31;57680;54.292;18.598;2023-11-18T13:03:51;2.96;92.76
70271;SHT31;57680;54.292;18.598;2023-11-18T13:06:16;2.95;92.57
70271;SHT31;57680;54.292;18.598;2023-11-18T13:08:41;2.95;92.46
70271;SHT31;57680;54.292;18.598;2023-11-18T13:11:07;2.93;92.41
70271;SHT31;57680;54.292;18.598;2023-11-18T13:13:35;2.95;92.56
70271;SHT31;57680;54.292;18.598;2023-11-18T13:16:00;2.95;92.75
70271;SHT31;57680;54.292;18.598;2023-11-18T13:18:26;2.93;92.71
70271;SHT31;57680;54.292;18.598;2023-11-18T13:20:57;2.93;92.20
70271;SHT31;57680;54.292;18.598;2023-11-18T13:23:26;2.89;91.45
70271;SHT31;57680;54.292;18.598;2023-11-18T13:25:55;2.85;91.18
70271;SHT31;57680;54.292;18.598;2023-11-18T13:28:23;2.84;90.82
70271;SHT31;57680;54.292;18.598;2023-11-18T13:30:48;2.81;90.61
70271;SHT31;57680;54.292;18.598;2023-11-18T13:33:14;2.77;90.49
70271;SHT31;57680;54.292;18.598;2023-11-18T13:35:39;2.75;90.55
70271;SHT31;57680;54.292;18.598;2023-11-18T13:38:04;2.78;90.67
70271;SHT31;57680;54.292;18.598;2023-11-18T13:40:46;2.77;90.50
70271;SHT31;57680;54.292;18.598;2023-11-18T13:43:12;2.74;90.48
70271;SHT31;57680;54.292;18.598;2023-11-18T13:45:38;2.70;90.48
70271;SHT31;57680;54.292;18.598;2023-11-18T13:48:04;2.66;90.50
70271;SHT31;57680;54.292;18.598;2023-11-18T13:50:29;2.64;90.69
70271;SHT31;57680;54.292;18.598;2023-11-18T13:52:56;2.60;90.92
70271;SHT31;57680;54.292;18.598;2023-11-18T13:55:21;2.61;91.18
70271;SHT31;57680;54.292;18.598;2023-11-18T13:57:47;2.60;91.21
70271;SHT31;57680;54.292;18.598;2023-11-18T14:00:13;2.55;91.38
70271;SHT31;57680;54.292;18.598;2023-11-18T14:02:38;2.54;91.67
70271;SHT31;57680;54.292;18.598;2023-11-18T14:05:04;2.52;92.04
70271;SHT31;57680;54.292;18.598;2023-11-18T14:07:29;2.48;92.27
70271;SHT31;57680;54.292;18.598;2023-11-18T14:09:54;2.48;92.44
70271;SHT31;57680;54.292;18.598;2023-11-18T14:12:19;2.44;92.46
70271;SHT31;57680;54.292;18.598;2023-11-18T14:14:45;2.40;92.76
70271;SHT31;57680;54.292;18.598;2023-11-18T14:17:10;2.31;93.04
70271;SHT31;57680;54.292;18.598;2023-11-18T14:19:36;2.23;93.38
70271;SHT31;57680;54.292;18.598;2023-11-18T14:22:02;2.14;93.78
70271;SHT31;57680;54.292;18.598;2023-11-18T14:24:28;2.06;94.04
70271;SHT31;57680;54.292;18.598;2023-11-18T14:26:56;1.96;94.45
70271;SHT31;57680;54.292;18.598;2023-11-18T14:29:22;1.85;94.72
70271;SHT31;57680;54.292;18.598;2023-11-18T14:32:22;1.83;95.35
70271;SHT31;57680;54.292;18.598;2023-11-18T14:42:47;1.72;96.28
70271;SHT31;57680;54.292;18.598;2023-11-18T14:45:13;1.65;96.51
70271;SHT31;57680;54.292;18.598;2023-11-18T14:49:37;1.59;97.03
70271;SHT31;57680;54.292;18.598;2023-11-18T14:52:03;1.56;97.36
70271;SHT31;57680;54.292;18.598;2023-11-18T14:54:28;1.56;97.36
70271;SHT31;57680;54.292;18.598;2023-11-18T14:56:53;1.55;97.65
70271;SHT31;57680;54.292;18.598;2023-11-18T14:59:19;1.54;97.69
70271;SHT31;57680;54.292;18.598;2023-11-18T15:01:47;1.56;97.75
70271;SHT31;57680;54.292;18.598;2023-11-18T15:04:12;1.52;97.35
70271;SHT31;57680;54.292;18.598;2023-11-18T15:06:38;1.47;97.57
70271;SHT31;57680;54.292;18.598;2023-11-18T15:09:03;1.40;97.71
70271;SHT31;57680;54.292;18.598;2023-11-18T15:11:28;1.40;97.68
70271;SHT31;57680;54.292;18.598;2023-11-18T15:13:54;1.38;97.75
70271;SHT31;57680;54.292;18.598;2023-11-18T15:16:19;1.38;97.81
70271;SHT31;57680;54.292;18.598;2023-11-18T15:18:44;1.37;97.90
70271;SHT31;57680;54.292;18.598;2023-11-18T15:21:10;1.32;97.87
70271;SHT31;57680;54.292;18.598;2023-11-18T15:23:35;1.34;98.01
70271;SHT31;57680;54.292;18.598;2023-11-18T15:32:47;1.14;98.40
70271;SHT31;57680;54.292;18.598;2023-11-18T15:35:13;1.13;98.65
70271;SHT31;57680;54.292;18.598;2023-11-18T15:39:48;1.20;99.06
70271;SHT31;57680;54.292;18.598;2023-11-18T15:42:13;1.26;99.13
70271;SHT31;57680;54.292;18.598;2023-11-18T15:44:38;1.31;98.86
70271;SHT31;57680;54.292;18.598;2023-11-18T15:47:05;1.37;98.70
70271;SHT31;57680;54.292;18.598;2023-11-18T15:49:30;1.34;98.53
70271;SHT31;57680;54.292;18.598;2023-11-18T15:51:55;1.37;98.40
70271;SHT31;57680;54.292;18.598;2023-11-18T15:54:20;1.40;98.31
70271;SHT31;57680;54.292;18.598;2023-11-18T15:56:46;1.37;97.95
70271;SHT31;57680;54.292;18.598;2023-11-18T15:59:11;1.28;97.67
70271;SHT31;57680;54.292;18.598;2023-11-18T16:01:36;1.21;97.94
70271;SHT31;57680;54.292;18.598;2023-11-18T16:04:02;1.19;97.85
70271;SHT31;57680;54.292;18.598;2023-11-18T16:06:27;1.00;97.66
70271;SHT31;57680;54.292;18.598;2023-11-18T16:08:52;0.83;97.64
70271;SHT31;57680;54.292;18.598;2023-11-18T16:11:18;0.80;97.95